KPVD/PVD METAR and TAF weather

Enter ICAO airport designator
Station Type Date Time Source
KPVD METAR 2018/12/19 08:51 UTC NOAA

KPVD 190851Z AUTO 28004KT 10SM CLR M06/M12 A3008 RMK AO2 SLP186 T10611117 51005


Station Type Date Time Source
KPVD Decoded METAR 2018/12/19 08:51 UTC NOAA

PROVIDENCE GREEN STATE AIRPORT , RI, United States (KPVD) 41-44N 071-26W 16M
Dec 19, 2018 - 03:51 AM EST / 2018.12.19 0851 UTC
Wind: from the W (280 degrees) at 5 MPH (4 KT):0
Visibility: 10 mile(s):0
Sky conditions: clear
Temperature: 21.0 F (-6.1 C)
Windchill: 14 F (-10 C):1
Dew Point: 10.9 F (-11.7 C)
Relative Humidity: 64%
Pressure (altimeter): 30.08 in. Hg (1018 hPa)
Pressure tendency: 0.01 inches (0.5 hPa) higher than three hours ago
ob: KPVD 190851Z AUTO 28004KT 10SM CLR M06/M12 A3008 RMK AO2 SLP186 T10611117 51005
cycle: 9

Station Type Date Time Source
KPVD TAF 2018/12/19 09:24 UTC NOAA

TAF
AMD KPVD 190921Z 1909/2006 28005KT P6SM SKC
FM191700 26006KT P6SM SKC
FM200000 23005KT P6SM FEW130


Example: see airport list